createdAt,value
2023-02-11T00:01:44.375Z,88.61
2023-02-11T00:05:07.334Z,86.33
2023-02-11T00:08:29.715Z,84.56
2023-02-11T00:11:52.109Z,83.91
2023-02-11T00:15:18.194Z,82.93
2023-02-11T00:18:40.681Z,82.33
2023-02-11T00:22:03.186Z,83.65
2023-02-11T00:25:26.114Z,83.42
2023-02-11T00:28:48.914Z,82.62
2023-02-11T00:32:13.384Z,81.52
2023-02-11T00:35:37.661Z,80.37
2023-02-11T00:39:00.359Z,84.55
2023-02-11T00:42:23.647Z,85.97
2023-02-11T00:45:49.513Z,84.70
2023-02-11T00:49:13.404Z,87.99
2023-02-11T00:52:36.633Z,89.43
2023-02-11T00:55:58.971Z,86.57
2023-02-11T00:59:21.362Z,85.75
2023-02-11T01:02:44.030Z,87.04
2023-02-11T01:06:08.914Z,86.57
2023-02-11T01:09:33.068Z,85.40
2023-02-11T01:12:58.761Z,87.61
2023-02-11T01:16:21.416Z,85.98
2023-02-11T01:19:44.403Z,86.22
2023-02-11T01:23:08.461Z,86.57
2023-02-11T01:26:31.837Z,87.48
2023-02-11T01:29:54.290Z,87.88
2023-02-11T01:33:16.747Z,86.95
2023-02-11T01:36:39.354Z,86.11
2023-02-11T01:40:04.298Z,85.78
2023-02-11T01:43:27.223Z,86.67
2023-02-11T01:46:50.266Z,86.87
2023-02-11T01:50:13.801Z,89.84
2023-02-11T01:54:05.424Z,89.55
2023-02-11T01:57:31.015Z,84.76
2023-02-11T02:00:53.961Z,83.52
2023-02-11T02:04:18.783Z,85.96
2023-02-11T02:07:45.927Z,86.60
2023-02-11T02:11:08.945Z,85.28
2023-02-11T02:14:34.122Z,85.23
2023-02-11T02:18:05.434Z,86.91
2023-02-11T02:21:58.501Z,84.41
2023-02-11T02:25:29.880Z,87.10
2023-02-11T02:29:05.372Z,88.09
2023-02-11T02:32:34.079Z,86.57
2023-02-11T02:36:02.721Z,88.62
2023-02-11T02:39:27.274Z,88.76
2023-02-11T02:42:50.028Z,88.84
2023-02-11T02:46:14.706Z,87.52
2023-02-11T02:49:38.618Z,88.11
2023-02-11T02:53:09.144Z,89.00
2023-02-11T02:56:33.469Z,89.29
2023-02-11T03:00:09.441Z,88.06
2023-02-11T03:03:36.742Z,86.77
2023-02-11T03:07:04.176Z,84.69
2023-02-11T03:10:27.983Z,85.89
2023-02-11T03:13:50.799Z,87.52
2023-02-11T03:17:13.431Z,83.14
2023-02-11T03:20:37.606Z,83.60
2023-02-11T03:24:03.280Z,85.03
2023-02-11T03:27:30.944Z,85.12
2023-02-11T03:30:57.266Z,83.94
2023-02-11T03:34:22.099Z,84.41
2023-02-11T03:37:46.654Z,87.54
2023-02-11T03:41:10.538Z,87.62
2023-02-11T03:44:36.044Z,83.67
2023-02-11T03:48:01.347Z,83.39
2023-02-11T03:51:23.760Z,83.49
2023-02-11T03:54:46.702Z,84.65
2023-02-11T03:58:10.473Z,82.74
2023-02-11T04:01:33.305Z,83.81
2023-02-11T04:04:56.509Z,86.83
2023-02-11T04:08:18.889Z,88.64
2023-02-11T04:11:41.953Z,85.87
2023-02-11T04:15:06.490Z,88.21
2023-02-11T04:18:29.165Z,87.83
2023-02-11T04:21:51.496Z,88.07
2023-02-11T04:25:14.624Z,87.83
2023-02-11T04:28:36.949Z,86.41
2023-02-11T04:32:01.361Z,86.73
2023-02-11T04:35:23.875Z,86.60
2023-02-11T04:38:46.887Z,87.63
2023-02-11T04:42:12.346Z,87.59
2023-02-11T04:45:34.855Z,83.28
2023-02-11T04:48:59.065Z,85.60
2023-02-11T04:52:21.399Z,84.88
2023-02-11T04:55:44.050Z,85.08
2023-02-11T04:59:07.022Z,86.22
2023-02-11T05:02:29.482Z,85.00
2023-02-11T05:05:53.664Z,85.28
2023-02-11T05:09:16.826Z,85.40
2023-02-11T05:12:39.542Z,84.97
2023-02-11T05:16:02.248Z,85.79
2023-02-11T05:19:24.866Z,85.28
2023-02-11T05:22:48.688Z,85.61
2023-02-11T05:26:11.212Z,85.80
2023-02-11T05:29:33.468Z,85.82
2023-02-11T05:32:56.650Z,83.80
2023-02-11T05:36:19.138Z,84.86
2023-02-11T05:39:43.156Z,84.06
2023-02-11T05:43:05.680Z,83.63
2023-02-11T05:46:28.238Z,84.29
2023-02-11T05:49:50.610Z,86.14
2023-02-11T05:53:13.182Z,88.01
2023-02-11T05:56:37.510Z,92.47
2023-02-11T06:00:00.161Z,92.63
2023-02-11T06:03:23.136Z,92.51
2023-02-11T06:06:46.211Z,93.01
2023-02-11T06:10:09.720Z,93.02
2023-02-11T06:13:34.201Z,94.40
2023-02-11T06:16:56.698Z,94.93
2023-02-11T06:20:19.374Z,93.39
2023-02-11T06:23:41.929Z,92.14
2023-02-11T06:27:04.952Z,91.67
2023-02-11T06:30:28.618Z,92.16
2023-02-11T06:33:51.989Z,91.94
2023-02-11T06:37:14.577Z,92.18
2023-02-11T06:40:37.228Z,93.95
2023-02-11T06:43:59.850Z,94.99
2023-02-11T06:47:23.903Z,95.60
2023-02-11T06:50:46.484Z,94.96
2023-02-11T06:54:09.074Z,95.37
2023-02-11T06:57:31.884Z,94.20
2023-02-11T07:00:54.721Z,93.45
2023-02-11T07:04:19.505Z,94.34
2023-02-11T07:07:42.592Z,92.91
2023-02-11T07:11:10.551Z,92.11
2023-02-11T07:14:33.005Z,91.26
2023-02-11T07:17:55.422Z,90.17
2023-02-11T07:21:21.470Z,89.96
2023-02-11T07:24:44.051Z,88.44
2023-02-11T07:28:07.117Z,90.23
2023-02-11T07:31:30.530Z,89.02
2023-02-11T07:34:53.183Z,88.77
2023-02-11T07:38:17.059Z,87.57
2023-02-11T07:41:39.887Z,85.64
2023-02-11T07:45:02.307Z,85.37
2023-02-11T07:48:25.516Z,84.56
2023-02-11T07:51:49.214Z,84.28
2023-02-11T07:55:13.202Z,83.53
2023-02-11T07:58:35.779Z,78.90
2023-02-11T08:01:58.697Z,76.07
2023-02-11T08:05:21.612Z,74.43
2023-02-11T08:08:44.171Z,74.37
2023-02-11T08:12:08.730Z,78.08
2023-02-11T08:15:31.318Z,79.56
2023-02-11T08:18:54.167Z,79.85
2023-02-11T08:22:16.660Z,78.54
2023-02-11T08:25:39.189Z,79.33
2023-02-11T08:29:03.701Z,78.63
2023-02-11T08:32:26.880Z,78.66
2023-02-11T08:35:49.032Z,77.86
2023-02-11T08:39:20.070Z,76.97
2023-02-11T08:42:43.077Z,78.02
2023-02-11T08:46:07.477Z,78.50
2023-02-11T08:49:30.686Z,78.41
2023-02-11T08:52:53.697Z,76.05
2023-02-11T08:56:16.453Z,76.74
2023-02-11T08:59:40.097Z,78.05
2023-02-11T09:03:04.000Z,74.65
2023-02-11T09:06:26.957Z,75.13
2023-02-11T09:09:49.481Z,73.58
2023-02-11T09:13:12.702Z,72.61
2023-02-11T09:16:36.106Z,71.29
2023-02-11T09:19:59.982Z,70.03
2023-02-11T09:23:22.654Z,69.49
2023-02-11T09:26:45.461Z,67.57
2023-02-11T09:30:08.876Z,66.43
2023-02-11T09:33:31.496Z,66.75
2023-02-11T09:36:55.609Z,65.98
2023-02-11T09:40:18.326Z,65.64
2023-02-11T09:43:44.206Z,65.43
2023-02-11T09:47:08.056Z,61.24
2023-02-11T09:50:32.285Z,57.19
2023-02-11T09:54:00.927Z,54.96
2023-02-11T09:57:29.020Z,54.81
2023-02-11T10:00:58.184Z,52.44
2023-02-11T10:04:26.455Z,49.98
2023-02-11T10:07:52.679Z,49.05
2023-02-11T10:11:30.989Z,49.00
2023-02-11T10:15:12.762Z,48.78
2023-02-11T10:18:41.563Z,47.63
2023-02-11T10:22:08.600Z,47.67
2023-02-11T10:25:35.940Z,48.29
2023-02-11T10:29:02.030Z,48.17
2023-02-11T10:32:36.672Z,49.47
2023-02-11T10:35:59.259Z,50.76
2023-02-11T10:39:23.229Z,50.24
2023-02-11T10:42:47.274Z,49.77
2023-02-11T10:46:16.071Z,51.70
2023-02-11T10:49:39.713Z,51.98
2023-02-11T10:53:19.861Z,52.36
2023-02-11T10:56:43.615Z,51.70
2023-02-11T11:00:17.120Z,50.84
2023-02-11T11:03:41.501Z,49.71
2023-02-11T11:07:15.629Z,49.37
2023-02-11T11:10:43.463Z,48.23
2023-02-11T11:14:06.429Z,49.63
2023-02-11T11:17:29.750Z,50.95
2023-02-11T11:20:59.608Z,50.71
2023-02-11T11:24:24.982Z,49.75
2023-02-11T11:27:50.101Z,46.48
2023-02-11T11:31:19.040Z,46.50
2023-02-11T11:34:43.085Z,48.07
2023-02-11T11:38:07.181Z,48.58
2023-02-11T11:41:30.702Z,49.82
2023-02-11T11:44:57.948Z,49.37
2023-02-11T11:48:22.374Z,48.62
2023-02-11T11:51:46.888Z,49.67
2023-02-11T11:55:15.947Z,51.04
2023-02-11T11:58:38.682Z,51.88
2023-02-11T12:02:12.249Z,52.29
2023-02-11T12:05:37.608Z,52.65
2023-02-11T12:09:07.913Z,52.85
2023-02-11T12:12:41.539Z,52.24
2023-02-11T12:16:10.359Z,51.13
2023-02-11T12:19:51.080Z,47.29
2023-02-11T12:23:23.845Z,47.22
2023-02-11T12:26:47.653Z,46.31
2023-02-11T12:30:19.336Z,46.24
2023-02-11T12:33:56.774Z,44.09
2023-02-11T12:37:26.010Z,42.46
2023-02-11T12:40:54.343Z,40.96
2023-02-11T12:44:23.136Z,41.45
2023-02-11T12:47:54.799Z,42.62
2023-02-11T12:51:24.615Z,41.72
2023-02-11T12:54:50.044Z,42.72
2023-02-11T12:58:14.773Z,43.03
2023-02-11T13:01:40.167Z,43.52
2023-02-11T13:05:07.473Z,44.09
2023-02-11T13:08:32.142Z,44.70
2023-02-11T13:11:56.100Z,46.93
2023-02-11T13:15:20.133Z,47.39
2023-02-11T13:18:54.715Z,48.06
2023-02-11T13:22:19.570Z,47.76
2023-02-11T13:25:44.840Z,47.46
2023-02-11T13:29:15.812Z,45.23
2023-02-11T13:33:18.343Z,43.37
2023-02-11T13:36:41.823Z,40.25
2023-02-11T13:40:07.418Z,40.55
2023-02-11T13:43:31.137Z,40.24
2023-02-11T13:47:02.364Z,40.06
2023-02-11T13:50:26.190Z,39.91
2023-02-11T13:53:50.597Z,41.66
2023-02-11T13:57:34.391Z,41.67
2023-02-11T14:00:58.910Z,43.27
2023-02-11T14:04:40.429Z,40.29
2023-02-11T14:08:51.669Z,40.19
2023-02-11T14:12:37.180Z,38.44
2023-02-11T14:16:08.577Z,38.19
2023-02-11T14:19:32.889Z,37.81
2023-02-11T14:22:55.222Z,39.42
2023-02-11T14:26:30.839Z,39.73
2023-02-11T14:30:10.553Z,38.77
2023-02-11T14:33:53.646Z,38.24
2023-02-11T14:37:22.270Z,38.07
2023-02-11T14:40:52.533Z,36.53
2023-02-11T14:44:17.041Z,39.30
2023-02-11T14:47:44.741Z,39.19
2023-02-11T14:51:09.639Z,38.80
2023-02-11T14:54:33.714Z,39.97
2023-02-11T14:58:14.283Z,40.84
2023-02-11T15:01:42.466Z,41.95
2023-02-11T15:05:26.297Z,43.06
2023-02-11T15:08:50.764Z,43.24
2023-02-11T15:12:18.357Z,43.51
2023-02-11T15:15:43.402Z,44.54
2023-02-11T15:19:07.285Z,45.12
2023-02-11T15:22:34.455Z,45.22
2023-02-11T15:25:58.194Z,45.11
2023-02-11T15:29:22.117Z,45.37
2023-02-11T15:32:46.528Z,45.43
2023-02-11T15:36:12.053Z,46.65
2023-02-11T15:39:40.481Z,47.33
2023-02-11T15:43:06.490Z,47.92
2023-02-11T15:46:38.359Z,47.96
2023-02-11T15:50:03.823Z,49.15
2023-02-11T15:53:29.275Z,49.08
2023-02-11T15:56:57.609Z,49.35
2023-02-11T16:00:24.898Z,49.42
2023-02-11T16:03:52.118Z,49.83
2023-02-11T16:07:42.372Z,48.91
2023-02-11T16:11:09.547Z,48.67
2023-02-11T16:14:37.631Z,47.71
2023-02-11T16:18:02.154Z,47.79
2023-02-11T16:21:30.274Z,47.77
2023-02-11T16:24:57.908Z,47.69
2023-02-11T16:28:23.475Z,48.22
2023-02-11T16:31:50.760Z,48.42
2023-02-11T16:35:14.708Z,48.63
2023-02-11T16:38:38.874Z,49.56
2023-02-11T16:42:05.234Z,50.03
2023-02-11T16:45:32.248Z,50.45
2023-02-11T16:48:58.142Z,51.50
2023-02-11T16:52:26.115Z,51.74
2023-02-11T16:55:50.838Z,52.52
2023-02-11T16:59:16.568Z,52.56
2023-02-11T17:02:41.130Z,52.44
2023-02-11T17:06:08.469Z,53.70
2023-02-11T17:09:32.624Z,53.78
2023-02-11T17:12:56.366Z,54.07
2023-02-11T17:16:23.069Z,54.30
2023-02-11T17:19:48.881Z,54.88
2023-02-11T17:23:14.994Z,55.67
2023-02-11T17:26:39.304Z,56.07
2023-02-11T17:30:03.986Z,55.92
2023-02-11T17:33:29.791Z,55.99
2023-02-11T17:36:56.047Z,55.52
2023-02-11T17:40:25.493Z,55.56
2023-02-11T17:43:49.936Z,55.50
2023-02-11T17:47:14.620Z,56.19
2023-02-11T17:50:40.450Z,56.45
2023-02-11T17:54:07.588Z,55.80
2023-02-11T17:57:33.376Z,55.94
2023-02-11T18:01:01.010Z,57.49
2023-02-11T18:04:27.942Z,56.74
2023-02-11T18:07:51.971Z,57.02
2023-02-11T18:11:18.071Z,57.73
2023-02-11T18:14:44.118Z,57.60
2023-02-11T18:18:22.144Z,56.94
2023-02-11T18:21:45.465Z,57.41
2023-02-11T18:25:10.632Z,57.24
2023-02-11T18:28:34.904Z,57.56
2023-02-11T18:32:01.199Z,57.51
2023-02-11T18:35:25.222Z,57.87
2023-02-11T18:38:50.200Z,57.74
2023-02-11T18:42:14.629Z,57.59
2023-02-11T18:45:39.549Z,57.78
2023-02-11T18:49:05.547Z,57.23
2023-02-11T18:52:29.416Z,57.22
2023-02-11T18:55:55.176Z,57.33
2023-02-11T18:59:20.649Z,57.78
2023-02-11T19:02:45.103Z,57.80
2023-02-11T19:06:16.240Z,57.61
2023-02-11T19:09:43.760Z,57.10
2023-02-11T19:13:08.660Z,57.42
2023-02-11T19:16:33.509Z,56.98
2023-02-11T19:19:58.110Z,57.19
2023-02-11T19:23:24.872Z,57.26
2023-02-11T19:26:49.629Z,56.76
2023-02-11T19:30:14.692Z,57.05
2023-02-11T19:33:43.929Z,56.84
2023-02-11T19:37:08.011Z,57.00
2023-02-11T19:40:36.965Z,56.89
2023-02-11T19:44:01.744Z,57.22
2023-02-11T19:47:29.688Z,57.04
2023-02-11T19:50:56.942Z,57.04
2023-02-11T19:54:22.142Z,56.89
2023-02-11T19:57:48.238Z,57.22
2023-02-11T20:01:13.390Z,57.27
2023-02-11T20:04:39.372Z,57.46
2023-02-11T20:08:04.386Z,57.67
2023-02-11T20:11:32.815Z,57.93
2023-02-11T20:14:59.407Z,58.60
2023-02-11T20:18:24.306Z,58.60
2023-02-11T20:21:48.339Z,58.91
2023-02-11T20:25:13.475Z,59.99
2023-02-11T20:28:37.971Z,59.30
2023-02-11T20:32:04.058Z,59.18
2023-02-11T20:35:28.615Z,59.45
2023-02-11T20:38:53.411Z,59.32
2023-02-11T20:42:17.628Z,59.48
2023-02-11T20:45:42.906Z,59.99
2023-02-11T20:49:09.359Z,59.46
2023-02-11T20:52:36.814Z,59.43
2023-02-11T20:56:04.190Z,59.70
2023-02-11T20:59:28.204Z,60.47
2023-02-11T21:02:58.782Z,60.72
2023-02-11T21:06:25.623Z,62.00
2023-02-11T21:09:49.882Z,62.42
2023-02-11T21:13:15.149Z,62.67
2023-02-11T21:16:39.316Z,62.79
2023-02-11T21:20:03.205Z,63.06
2023-02-11T21:23:29.669Z,62.61
2023-02-11T21:26:55.425Z,62.96
2023-02-11T21:30:19.409Z,63.88
2023-02-11T21:33:48.465Z,64.40
2023-02-11T21:37:12.008Z,63.73
2023-02-11T21:40:38.766Z,64.30
2023-02-11T21:44:02.113Z,65.00
2023-02-11T21:47:26.266Z,65.99
2023-02-11T21:50:50.075Z,67.51
2023-02-11T21:54:16.243Z,68.81
2023-02-11T21:57:44.130Z,69.65
2023-02-11T22:01:14.644Z,70.81
2023-02-11T22:04:41.984Z,71.29
2023-02-11T22:08:05.288Z,71.60
2023-02-11T22:11:27.973Z,71.94
2023-02-11T22:14:53.338Z,72.32
2023-02-11T22:18:16.870Z,72.82
2023-02-11T22:21:39.713Z,73.54
2023-02-11T22:25:03.311Z,73.65
2023-02-11T22:28:30.127Z,74.59
2023-02-11T22:31:54.471Z,75.32
2023-02-11T22:35:17.186Z,76.32
2023-02-11T22:38:40.090Z,77.62
2023-02-11T22:42:02.564Z,78.21
2023-02-11T22:45:25.863Z,78.95
2023-02-11T22:48:49.848Z,78.77
2023-02-11T22:52:12.997Z,79.70
2023-02-11T22:55:37.813Z,79.67
2023-02-11T22:59:01.249Z,79.31
2023-02-11T23:02:23.674Z,79.37
2023-02-11T23:05:47.979Z,79.10
2023-02-11T23:09:12.383Z,79.12
2023-02-11T23:12:35.249Z,79.30
2023-02-11T23:15:57.895Z,79.28
2023-02-11T23:19:20.640Z,78.98
2023-02-11T23:22:44.190Z,79.24
2023-02-11T23:26:06.894Z,79.71
2023-02-11T23:29:29.430Z,79.91
2023-02-11T23:32:52.232Z,80.46
2023-02-11T23:36:14.518Z,80.65
2023-02-11T23:39:38.808Z,80.35
2023-02-11T23:43:00.934Z,81.33
2023-02-11T23:46:23.666Z,80.81
2023-02-11T23:49:46.465Z,80.86
2023-02-11T23:53:08.826Z,81.33
2023-02-11T23:56:32.638Z,81.34
2023-02-11T23:59:55.880Z,82.26
